createdAt,value
2018-04-11T00:00:05.913Z,4.63
2018-04-11T00:02:33.445Z,5.07
2018-04-11T00:05:01.010Z,4.77
2018-04-11T00:07:28.556Z,4.60
2018-04-11T00:09:56.119Z,5.73
2018-04-11T00:12:23.714Z,4.53
2018-04-11T00:14:51.285Z,5.50
2018-04-11T00:17:19.134Z,4.87
2018-04-11T00:19:46.708Z,4.50
2018-04-11T00:22:14.259Z,5.00
2018-04-11T00:24:41.818Z,4.80
2018-04-11T00:27:09.349Z,4.80
2018-04-11T00:29:36.931Z,6.00
2018-04-11T00:32:04.472Z,4.93
2018-04-11T00:34:32.038Z,4.90
2018-04-11T00:36:59.569Z,5.00
2018-04-11T00:39:27.116Z,5.30
2018-04-11T00:41:54.648Z,4.20
2018-04-11T00:44:22.982Z,4.93
2018-04-11T00:46:50.527Z,4.97
2018-04-11T00:49:18.092Z,5.00
2018-04-11T00:51:45.632Z,5.20
2018-04-11T00:54:13.155Z,4.60
2018-04-11T00:56:41.651Z,4.90
2018-04-11T00:59:09.960Z,4.50
2018-04-11T01:01:37.514Z,5.07
2018-04-11T01:04:06.847Z,4.77
2018-04-11T01:06:34.411Z,6.17
2018-04-11T01:09:01.964Z,5.00
2018-04-11T01:11:29.527Z,4.73
2018-04-11T01:13:57.074Z,5.93
2018-04-11T01:16:24.635Z,4.50
2018-04-11T01:18:52.159Z,6.27
2018-04-11T01:21:19.723Z,4.90
2018-04-11T01:23:47.275Z,5.80
2018-04-11T01:26:14.846Z,4.93
2018-04-11T01:28:42.383Z,5.40
2018-04-11T01:31:09.939Z,5.57
2018-04-11T01:33:38.419Z,6.50
2018-04-11T01:36:06.737Z,5.80
2018-04-11T01:38:34.289Z,6.37
2018-04-11T01:41:01.857Z,5.90
2018-04-11T01:43:29.409Z,5.40
2018-04-11T01:45:56.983Z,5.90
2018-04-11T01:48:24.531Z,6.40
2018-04-11T01:50:52.071Z,6.53
2018-04-11T01:53:19.637Z,6.40
2018-04-11T01:55:47.203Z,5.90
2018-04-11T01:58:16.572Z,6.83
2018-04-11T02:00:44.107Z,5.20
2018-04-11T02:03:11.652Z,6.63
2018-04-11T02:05:39.206Z,6.37
2018-04-11T02:08:06.759Z,6.37
2018-04-11T02:10:34.293Z,6.57
2018-04-11T02:13:01.839Z,6.10
2018-04-11T02:15:30.136Z,6.60
2018-04-11T02:17:57.691Z,6.40
2018-04-11T02:20:25.216Z,5.97
2018-04-11T02:22:53.539Z,6.50
2018-04-11T02:25:21.119Z,7.93
2018-04-11T02:27:48.684Z,6.20
2018-04-11T02:30:16.222Z,6.50
2018-04-11T02:32:43.804Z,7.63
2018-04-11T02:35:11.344Z,6.57
2018-04-11T02:37:38.924Z,6.13
2018-04-11T02:40:06.474Z,5.93
2018-04-11T02:42:34.091Z,6.57
2018-04-11T02:45:01.623Z,6.80
2018-04-11T02:47:29.180Z,7.30
2018-04-11T02:49:56.735Z,6.60
2018-04-11T02:52:25.109Z,8.10
2018-04-11T02:54:52.650Z,6.93
2018-04-11T02:57:20.230Z,7.40
2018-04-11T02:59:49.266Z,6.90
2018-04-11T03:02:16.838Z,6.60
2018-04-11T03:04:44.371Z,6.30
2018-04-11T03:07:12.948Z,6.80
2018-04-11T03:09:40.456Z,6.83
2018-04-11T03:12:08.037Z,7.80
2018-04-11T03:14:35.582Z,7.70
2018-04-11T03:17:03.203Z,7.17
2018-04-11T03:19:30.753Z,8.07
2018-04-11T03:21:59.089Z,7.63
2018-04-11T03:24:26.620Z,7.73
2018-04-11T03:26:54.953Z,6.60
2018-04-11T03:29:23.248Z,7.93
2018-04-11T03:31:50.824Z,7.30
2018-04-11T03:34:18.379Z,8.47
2018-04-11T03:36:45.956Z,7.67
2018-04-11T03:39:13.503Z,7.40
2018-04-11T03:41:41.070Z,8.10
2018-04-11T03:44:08.611Z,8.10
2018-04-11T03:46:36.196Z,7.10
2018-04-11T03:49:03.868Z,8.57
2018-04-11T03:51:31.440Z,7.40
2018-04-11T03:53:58.975Z,7.00
2018-04-11T03:56:26.552Z,7.23
2018-04-11T03:58:54.300Z,8.77
2018-04-11T04:01:21.868Z,8.17
2018-04-11T04:03:49.408Z,7.73
2018-04-11T04:06:17.396Z,8.17
2018-04-11T04:08:44.953Z,8.60
2018-04-11T04:11:12.488Z,9.30
2018-04-11T04:13:51.971Z,8.23
2018-04-11T04:16:31.918Z,8.03
2018-04-11T04:19:11.571Z,9.53
2018-04-11T04:21:39.510Z,9.20
2018-04-11T04:24:09.708Z,8.13
2018-04-11T04:26:37.243Z,7.67
2018-04-11T04:29:04.819Z,9.37
2018-04-11T04:31:32.348Z,8.60
2018-04-11T04:34:00.124Z,8.47
2018-04-11T04:36:28.436Z,9.00
2018-04-11T04:38:56.016Z,7.93
2018-04-11T04:41:23.573Z,8.10
2018-04-11T04:43:51.262Z,8.73
2018-04-11T04:46:19.555Z,8.70
2018-04-11T04:48:47.137Z,9.50
2018-04-11T04:51:14.927Z,10.33
2018-04-11T04:53:42.479Z,9.77
2018-04-11T04:56:10.024Z,9.13
2018-04-11T04:58:37.587Z,9.13
2018-04-11T05:01:05.119Z,9.60
2018-04-11T05:03:32.689Z,9.07
2018-04-11T05:06:00.999Z,9.20
2018-04-11T05:08:28.576Z,10.07
2018-04-11T05:10:56.114Z,8.97
2018-04-11T05:13:24.008Z,9.67
2018-04-11T05:15:51.743Z,10.67
2018-04-11T05:18:19.532Z,11.30
2018-04-11T05:20:47.076Z,12.37
2018-04-11T05:23:14.643Z,12.10
2018-04-11T05:25:42.204Z,19.47
2018-04-11T05:28:09.801Z,12.77
2018-04-11T05:30:38.103Z,11.30
2018-04-11T05:33:06.219Z,10.60
2018-04-11T05:35:33.788Z,9.93
2018-04-11T05:38:02.098Z,14.40
2018-04-11T05:40:29.699Z,11.30
2018-04-11T05:42:57.279Z,12.07
2018-04-11T05:45:24.916Z,13.53
2018-04-11T05:47:52.478Z,11.97
2018-04-11T05:50:20.308Z,12.67
2018-04-11T05:52:48.624Z,11.03
2018-04-11T05:55:16.243Z,14.60
2018-04-11T05:57:43.809Z,13.93
2018-04-11T06:00:11.368Z,15.70
2018-04-11T06:02:39.687Z,15.10
2018-04-11T06:05:07.539Z,15.40
2018-04-11T06:07:35.103Z,14.03
2018-04-11T06:10:02.659Z,14.80
2018-04-11T06:12:30.247Z,13.97
2018-04-11T06:14:57.816Z,14.37
2018-04-11T06:17:25.380Z,14.40
2018-04-11T06:19:52.929Z,13.43
2018-04-11T06:22:20.516Z,14.20
2018-04-11T06:24:48.825Z,13.30
2018-04-11T06:27:16.395Z,11.93
2018-04-11T06:29:43.934Z,12.53
2018-04-11T06:32:12.352Z,12.67
2018-04-11T06:34:39.889Z,11.93
2018-04-11T06:37:07.455Z,12.43
2018-04-11T06:39:35.023Z,13.70
2018-04-11T06:42:02.606Z,14.50
2018-04-11T06:44:30.145Z,13.47
2018-04-11T06:46:57.711Z,13.63
2018-04-11T06:49:25.314Z,14.77
2018-04-11T06:51:52.845Z,14.03
2018-04-11T06:54:20.545Z,13.40
2018-04-11T06:56:48.956Z,15.60
2018-04-11T06:59:16.542Z,13.53
2018-04-11T07:01:44.347Z,14.23
2018-04-11T07:04:12.673Z,13.37
2018-04-11T07:06:40.259Z,14.23
2018-04-11T07:09:07.795Z,14.00
2018-04-11T07:11:35.452Z,14.20
2018-04-11T07:14:03.033Z,13.57
2018-04-11T07:16:30.649Z,14.10
2018-04-11T07:18:58.171Z,15.00
2018-04-11T07:21:25.704Z,15.03
2018-04-11T07:23:53.354Z,16.00
2018-04-11T07:26:20.890Z,14.03
2018-04-11T07:28:48.477Z,14.77
2018-04-11T07:31:16.027Z,14.23
2018-04-11T07:33:43.561Z,18.10
2018-04-11T07:36:11.140Z,16.43
2018-04-11T07:38:38.693Z,15.03
2018-04-11T07:41:06.277Z,16.90
2018-04-11T07:43:33.820Z,14.70
2018-04-11T07:46:01.414Z,16.70
2018-04-11T07:48:28.953Z,16.30
2018-04-11T07:50:56.561Z,18.03
2018-04-11T07:53:24.881Z,18.13
2018-04-11T07:55:52.440Z,16.40
2018-04-11T07:58:20.043Z,15.40
2018-04-11T08:00:47.899Z,17.97
2018-04-11T08:03:15.712Z,19.40
2018-04-11T08:05:43.229Z,16.80
2018-04-11T08:08:10.777Z,15.87
2018-04-11T08:10:38.344Z,13.67
2018-04-11T08:13:05.915Z,14.17
2018-04-11T08:15:34.248Z,16.63
2018-04-11T08:18:01.833Z,15.80
2018-04-11T08:20:29.384Z,13.93
2018-04-11T08:22:56.951Z,15.67
2018-04-11T08:25:24.532Z,14.37
2018-04-11T08:27:52.099Z,15.87
2018-04-11T08:30:20.414Z,15.73
2018-04-11T08:32:47.989Z,13.77
2018-04-11T08:35:15.525Z,14.50
2018-04-11T08:37:43.071Z,13.40
2018-04-11T08:40:10.583Z,13.90
2018-04-11T08:42:38.151Z,14.90
2018-04-11T08:45:05.727Z,14.00
2018-04-11T08:47:33.368Z,12.07
2018-04-11T08:50:00.911Z,12.80
2018-04-11T08:52:28.542Z,12.27
2018-04-11T08:54:56.076Z,11.80
2018-04-11T08:57:23.663Z,12.07
2018-04-11T08:59:51.236Z,12.20
2018-04-11T09:02:18.774Z,11.50
2018-04-11T09:04:46.337Z,11.07
2018-04-11T09:07:13.870Z,11.93
2018-04-11T09:09:42.228Z,11.70
2018-04-11T09:12:09.889Z,12.07
2018-04-11T09:14:37.473Z,11.77
2018-04-11T09:17:05.763Z,11.27
2018-04-11T09:19:33.393Z,11.90
2018-04-11T09:22:00.987Z,11.30
2018-04-11T09:24:28.739Z,11.50
2018-04-11T09:26:57.046Z,9.60
2018-04-11T09:29:24.624Z,10.13
2018-04-11T09:31:52.259Z,11.40
2018-04-11T09:34:19.773Z,12.30
2018-04-11T09:36:47.318Z,10.20
2018-04-11T09:39:14.884Z,9.60
2018-04-11T09:41:42.420Z,14.63
2018-04-11T09:44:10.144Z,14.43
2018-04-11T09:46:37.710Z,14.90
2018-04-11T09:49:05.379Z,15.13
2018-04-11T09:51:32.956Z,14.60
2018-04-11T09:54:00.502Z,15.30
2018-04-11T09:56:28.093Z,15.43
2018-04-11T09:58:55.651Z,15.17
2018-04-11T10:01:23.221Z,16.07
2018-04-11T10:03:50.914Z,15.67
2018-04-11T10:06:19.348Z,15.93
2018-04-11T10:08:46.923Z,15.13
2018-04-11T10:11:14.720Z,16.43
2018-04-11T10:13:43.126Z,15.83
2018-04-11T10:16:10.711Z,15.27
2018-04-11T10:18:38.453Z,12.50
2018-04-11T10:21:06.039Z,14.47
2018-04-11T10:23:33.611Z,14.77
2018-04-11T10:26:01.184Z,14.27
2018-04-11T10:28:28.750Z,12.40
2018-04-11T10:30:57.082Z,11.10
2018-04-11T10:33:24.643Z,11.80
2018-04-11T10:35:52.501Z,12.30
2018-04-11T10:38:20.048Z,13.47
2018-04-11T10:40:47.593Z,12.50
2018-04-11T10:43:15.277Z,13.03
2018-04-11T10:45:42.829Z,11.67
2018-04-11T10:48:10.398Z,13.50
2018-04-11T10:50:37.938Z,11.07
2018-04-11T10:53:05.528Z,10.77
2018-04-11T10:55:33.074Z,10.67
2018-04-11T10:58:00.672Z,11.00
2018-04-11T11:00:28.203Z,9.97
2018-04-11T11:02:55.770Z,12.57
2018-04-11T11:05:23.319Z,11.30
2018-04-11T11:07:50.954Z,9.40
2018-04-11T11:10:18.496Z,8.93
2018-04-11T11:12:46.060Z,10.10
2018-04-11T11:15:14.359Z,10.60
2018-04-11T11:17:41.932Z,12.80
2018-04-11T11:20:09.468Z,10.10
2018-04-11T11:22:37.041Z,8.40
2018-04-11T11:25:04.585Z,8.13
2018-04-11T11:27:33.192Z,8.17
2018-04-11T11:30:00.765Z,8.10
2018-04-11T11:32:28.299Z,8.20
2018-04-11T11:34:55.861Z,7.63
2018-04-11T11:37:23.441Z,8.10
2018-04-11T11:39:51.035Z,9.80
2018-04-11T11:42:19.349Z,9.37
2018-04-11T11:44:46.925Z,9.93
2018-04-11T11:47:14.466Z,9.80
2018-04-11T11:49:42.029Z,9.77
2018-04-11T11:52:09.584Z,8.80
2018-04-11T11:54:37.883Z,8.03
2018-04-11T11:57:05.429Z,7.83
2018-04-11T11:59:33.010Z,10.37
2018-04-11T12:02:00.568Z,10.70
2018-04-11T12:04:28.139Z,8.90
2018-04-11T12:06:55.758Z,7.80
2018-04-11T12:09:23.304Z,8.40
2018-04-11T12:11:51.631Z,7.60
2018-04-11T12:14:19.200Z,8.30
2018-04-11T12:16:46.736Z,8.83
2018-04-11T12:19:14.296Z,8.57
2018-04-11T12:21:41.832Z,8.77
2018-04-11T12:24:10.300Z,6.60
2018-04-11T12:26:38.598Z,7.63
2018-04-11T12:29:06.141Z,6.73
2018-04-11T12:31:35.080Z,8.33
2018-04-11T12:34:02.646Z,7.63
2018-04-11T12:36:30.217Z,7.10
2018-04-11T12:38:57.771Z,7.90
2018-04-11T12:41:25.363Z,7.53
2018-04-11T12:43:53.891Z,7.70
2018-04-11T12:46:21.433Z,6.90
2018-04-11T12:48:49.032Z,6.87
2018-04-11T12:51:16.644Z,6.93
2018-04-11T12:53:44.232Z,6.90
2018-04-11T12:56:11.760Z,7.13
2018-04-11T12:58:42.123Z,6.83
2018-04-11T13:01:09.679Z,6.80
2018-04-11T13:03:37.248Z,7.00
2018-04-11T13:06:04.798Z,7.00
2018-04-11T13:08:32.452Z,7.70
2018-04-11T13:11:00.146Z,6.80
2018-04-11T13:13:27.715Z,6.40
2018-04-11T13:15:55.256Z,6.60
2018-04-11T13:18:23.102Z,6.70
2018-04-11T13:20:50.617Z,5.80
2018-04-11T13:23:18.188Z,6.40
2018-04-11T13:25:46.508Z,6.47
2018-04-11T13:28:14.092Z,7.20
2018-04-11T13:30:41.631Z,7.10
2018-04-11T13:33:09.271Z,6.67
2018-04-11T13:35:36.823Z,6.27
2018-04-11T13:38:04.391Z,6.67
2018-04-11T13:40:31.935Z,6.00
2018-04-11T13:42:59.521Z,6.37
2018-04-11T13:45:27.062Z,7.70
2018-04-11T13:47:54.633Z,6.90
2018-04-11T13:50:22.181Z,7.60
2018-04-11T13:52:50.477Z,8.37
2018-04-11T13:55:18.031Z,7.53
2018-04-11T13:57:45.798Z,7.10
2018-04-11T14:00:13.328Z,9.07
2018-04-11T14:02:40.892Z,8.03
2018-04-11T14:05:08.425Z,7.30
2018-04-11T14:07:36.764Z,7.43
2018-04-11T14:10:04.328Z,7.93
2018-04-11T14:12:31.869Z,7.40
2018-04-11T14:14:59.435Z,9.20
2018-04-11T14:17:26.981Z,8.73
2018-04-11T14:19:54.559Z,8.27
2018-04-11T14:22:22.109Z,7.60
2018-04-11T14:24:49.686Z,7.23
2018-04-11T14:27:17.228Z,7.73
2018-04-11T14:29:44.808Z,7.37
2018-04-11T14:32:12.509Z,7.60
2018-04-11T14:34:40.852Z,6.73
2018-04-11T14:37:08.405Z,6.73
2018-04-11T14:39:36.113Z,6.63
2018-04-11T14:42:04.410Z,6.83
2018-04-11T14:44:32.182Z,6.50
2018-04-11T14:47:00.467Z,7.17
2018-04-11T14:49:28.159Z,7.60
2018-04-11T14:51:55.696Z,6.60
2018-04-11T14:54:23.274Z,5.97
2018-04-11T14:56:50.827Z,5.97
2018-04-11T14:59:18.400Z,6.20
2018-04-11T15:01:45.976Z,6.83
2018-04-11T15:04:13.540Z,5.73
2018-04-11T15:06:41.852Z,5.53
2018-04-11T15:09:09.424Z,5.90
2018-04-11T15:11:36.963Z,5.60
2018-04-11T15:14:05.257Z,5.40
2018-04-11T15:16:32.821Z,6.60
2018-04-11T15:19:00.411Z,6.63
2018-04-11T15:21:27.989Z,5.77
2018-04-11T15:23:55.765Z,6.00
2018-04-11T15:26:23.379Z,7.60
2018-04-11T15:28:50.928Z,6.80
2018-04-11T15:31:18.484Z,6.10
2018-04-11T15:33:46.087Z,7.33
2018-04-11T15:36:13.665Z,7.13
2018-04-11T15:38:41.208Z,6.50
2018-04-11T15:41:08.797Z,7.13
2018-04-11T15:43:36.339Z,7.40
2018-04-11T15:49:05.290Z,8.70
2018-04-11T15:51:32.868Z,6.90
2018-04-11T15:54:00.432Z,6.97
2018-04-11T15:56:28.128Z,8.27
2018-04-11T15:58:55.957Z,7.43
2018-04-11T16:01:23.711Z,7.43
2018-04-11T16:03:51.396Z,6.63
2018-04-11T16:06:19.766Z,6.97
2018-04-11T16:08:47.302Z,7.50
2018-04-11T16:11:14.876Z,7.30
2018-04-11T16:13:42.440Z,7.73
2018-04-11T16:16:10.024Z,6.97
2018-04-11T16:18:37.819Z,6.97
2018-04-11T16:21:06.184Z,7.90
2018-04-11T16:23:33.751Z,7.50
2018-04-11T16:26:02.100Z,7.10
2018-04-11T16:28:29.638Z,7.30
2018-04-11T16:30:57.241Z,7.07
2018-04-11T16:33:24.791Z,6.43
2018-04-11T16:35:52.359Z,8.70
2018-04-11T16:38:19.921Z,6.60
2018-04-11T16:40:48.275Z,7.50
2018-04-11T16:43:15.834Z,7.20
2018-04-11T16:45:45.187Z,8.00
2018-04-11T16:48:12.829Z,8.60
2018-04-11T16:50:41.343Z,8.90
2018-04-11T16:53:08.908Z,9.00
2018-04-11T16:55:36.490Z,8.60
2018-04-11T16:58:04.398Z,8.50
2018-04-11T17:00:31.978Z,9.03
2018-04-11T17:02:59.574Z,9.93
2018-04-11T17:05:27.149Z,9.57
2018-04-11T17:07:54.759Z,9.70
2018-04-11T17:10:22.346Z,10.10
2018-04-11T17:12:50.729Z,9.43
2018-04-11T17:15:18.336Z,9.70
2018-04-11T17:17:47.021Z,9.40
2018-04-11T17:20:15.440Z,9.97
2018-04-11T17:22:54.900Z,8.30
2018-04-11T17:25:34.211Z,9.17
2018-04-11T17:28:27.319Z,8.17
2018-04-11T17:33:51.766Z,6.97
2018-04-11T17:36:19.336Z,8.70
2018-04-11T17:38:46.891Z,7.73
2018-04-11T17:41:14.535Z,8.03
2018-04-11T17:43:42.114Z,8.10
2018-04-11T17:46:09.669Z,6.60
2018-04-11T17:48:37.257Z,6.87
2018-04-11T17:51:04.805Z,7.13
2018-04-11T17:53:32.429Z,6.60
2018-04-11T17:56:00.007Z,7.00
2018-04-11T17:58:27.620Z,6.50
2018-04-11T18:00:55.175Z,7.83
2018-04-11T18:03:22.777Z,6.33
2018-04-11T18:05:50.324Z,7.10
2018-04-11T18:08:17.978Z,7.00
2018-04-11T18:10:45.515Z,7.90
2018-04-11T18:13:13.177Z,7.60
2018-04-11T18:15:40.892Z,8.57
2018-04-11T18:18:08.724Z,8.60
2018-04-11T18:20:36.290Z,8.53
2018-04-11T18:23:04.060Z,7.60
2018-04-11T18:25:32.374Z,8.30
2018-04-11T18:28:00.112Z,7.77
2018-04-11T18:30:27.697Z,8.97
2018-04-11T18:32:55.429Z,9.40
2018-04-11T18:35:23.006Z,8.57
2018-04-11T18:37:50.559Z,7.97
2018-04-11T18:40:18.153Z,7.90
2018-04-11T18:42:45.772Z,7.93
2018-04-11T18:45:14.125Z,8.73
2018-04-11T18:47:42.468Z,8.50
2018-04-11T18:50:10.055Z,8.50
2018-04-11T18:52:38.387Z,9.13
2018-04-11T18:55:06.010Z,10.93
2018-04-11T18:57:33.881Z,8.60
2018-04-11T19:00:01.473Z,8.07
2018-04-11T19:02:29.083Z,9.73
2018-04-11T19:04:56.677Z,8.00
2018-04-11T19:07:24.303Z,8.87
2018-04-11T19:09:51.892Z,8.10
2018-04-11T19:12:20.264Z,7.73
2018-04-11T19:14:47.870Z,7.70
2018-04-11T19:17:15.473Z,8.20
2018-04-11T19:19:43.143Z,7.00
2018-04-11T19:22:10.956Z,8.33
2018-04-11T19:24:38.716Z,7.77
2018-04-11T19:27:06.321Z,7.30
2018-04-11T19:29:33.851Z,8.00
2018-04-11T19:32:01.462Z,8.90
2018-04-11T19:34:29.778Z,9.40
2018-04-11T19:36:57.341Z,9.37
2018-04-11T19:39:25.057Z,9.37
2018-04-11T19:41:53.486Z,8.73
2018-04-11T19:44:21.150Z,9.13
2018-04-11T19:46:48.707Z,8.70
2018-04-11T19:49:16.463Z,9.00
2018-04-11T19:51:44.015Z,8.43
2018-04-11T19:54:11.609Z,8.10
2018-04-11T19:56:39.357Z,9.33
2018-04-11T19:59:07.180Z,8.77
2018-04-11T20:01:42.293Z,10.00
2018-04-11T20:04:09.917Z,12.17
2018-04-11T20:06:37.536Z,13.87
2018-04-11T20:09:05.929Z,15.07
2018-04-11T20:11:33.608Z,16.33
2018-04-11T20:14:01.219Z,20.07
2018-04-11T20:16:28.796Z,18.20
2018-04-11T20:18:57.216Z,19.50
2018-04-11T20:21:24.832Z,18.67
2018-04-11T20:23:52.452Z,18.17
2018-04-11T20:26:20.004Z,18.53
2018-04-11T20:28:47.609Z,19.17
2018-04-11T20:31:15.164Z,21.20
2018-04-11T20:33:43.639Z,23.00
2018-04-11T20:36:11.209Z,19.23
2018-04-11T20:38:38.788Z,18.77
2018-04-11T20:41:07.096Z,18.03
2018-04-11T20:43:34.787Z,21.13
2018-04-11T20:46:02.341Z,19.50
2018-04-11T20:48:29.936Z,19.43
2018-04-11T20:50:57.492Z,19.97
2018-04-11T20:53:25.832Z,19.77
2018-04-11T20:55:53.385Z,18.77
2018-04-11T20:58:20.967Z,19.73
2018-04-11T21:00:48.808Z,25.37
2018-04-11T21:03:16.419Z,25.47
2018-04-11T21:05:44.743Z,28.03
2018-04-11T21:08:12.460Z,26.00
2018-04-11T21:10:40.012Z,28.40
2018-04-11T21:13:08.369Z,27.10
2018-04-11T21:15:35.932Z,27.07
2018-04-11T21:18:03.652Z,29.40
2018-04-11T21:20:31.213Z,27.23
2018-04-11T21:22:58.799Z,27.70
2018-04-11T21:25:26.512Z,28.43
2018-04-11T21:27:54.106Z,27.70
2018-04-11T21:30:21.695Z,27.73
2018-04-11T21:32:49.264Z,29.30
2018-04-11T21:35:16.817Z,28.70
2018-04-11T21:37:44.837Z,29.90
2018-04-11T21:40:12.411Z,27.80
2018-04-11T21:42:40.016Z,27.80
2018-04-11T21:45:07.533Z,29.90
2018-04-11T21:47:35.103Z,27.00
2018-04-11T21:50:02.673Z,28.10
2018-04-11T21:52:30.250Z,25.33
2018-04-11T21:54:57.802Z,25.30
2018-04-11T21:57:25.384Z,25.60
2018-04-11T21:59:53.904Z,24.77
2018-04-11T22:02:21.517Z,24.47
2018-04-11T22:04:49.059Z,26.80
2018-04-11T22:07:16.813Z,27.73
2018-04-11T22:09:44.356Z,28.77
2018-04-11T22:12:11.972Z,29.63
2018-04-11T22:14:40.303Z,27.60
2018-04-11T22:17:07.849Z,29.50
2018-04-11T22:19:35.512Z,36.10
2018-04-11T22:22:03.044Z,31.47
2018-04-11T22:24:31.377Z,32.73
2018-04-11T22:26:59.168Z,30.20
2018-04-11T22:29:27.507Z,32.90
2018-04-11T22:31:55.043Z,37.53
2018-04-11T22:34:22.630Z,33.20
2018-04-11T22:36:50.183Z,32.53
2018-04-11T22:39:17.745Z,32.73
2018-04-11T22:41:45.293Z,33.20
2018-04-11T22:44:13.110Z,33.17
2018-04-11T22:46:40.889Z,33.10
2018-04-11T22:49:08.475Z,33.90
2018-04-11T22:51:36.012Z,33.10
2018-04-11T22:54:04.683Z,31.50
2018-04-11T22:56:32.992Z,32.80
2018-04-11T22:59:00.566Z,30.80
2018-04-11T23:01:28.279Z,32.80
2018-04-11T23:03:56.631Z,33.60
2018-04-11T23:06:24.207Z,31.87
2018-04-11T23:08:51.799Z,30.70
2018-04-11T23:11:19.340Z,33.50
2018-04-11T23:13:47.689Z,32.17
2018-04-11T23:16:15.236Z,32.20
2018-04-11T23:18:43.073Z,33.27
2018-04-11T23:21:10.612Z,35.27
2018-04-11T23:23:38.928Z,31.50
2018-04-11T23:26:06.507Z,33.13
2018-04-11T23:28:34.047Z,33.80
2018-04-11T23:31:01.617Z,34.60
2018-04-11T23:33:29.231Z,35.63
2018-04-11T23:35:56.997Z,33.80
2018-04-11T23:38:24.555Z,33.87
2018-04-11T23:40:52.119Z,34.50
2018-04-11T23:43:20.427Z,33.13
2018-04-11T23:45:47.996Z,33.93
2018-04-11T23:48:15.540Z,32.03
2018-04-11T23:50:43.148Z,33.53
2018-04-11T23:53:10.688Z,34.20
2018-04-11T23:55:38.263Z,33.67
2018-04-11T23:58:05.775Z,35.30
